Tasman Mariner — VRWW8 — position and weather

sailwx.info

Track history (hours):
 
Tides and Currents Weather Stations Pressure Air Temp Water Temp Dewpoint Dewpoint Depression Visibility Wind Speed Wind Dir Waves Ship Positions

Tasman Mariner

Last reported at 2017-Jun-23 04:47 UTC. Time now 2017-Jun-24 18:54 UTC.
Position N 01°15' E 104°05'.

Length 184 m; beam 27 m; draft 10 m.

Type: Ship (hazmat cat C). MMSI: 477860000.

Date/timePositionNaut miles runAvg speedWind from/ knotsBaromVisibWave heightAir tempDewpointWater temp
2017-Jun-23 04:47N 01°15' E 104°05'414.0
2017-Jun-23 04:30N 01°15' E 104°01'714.0
2017-Jun-23 04:00N 01°12' E 103°54'713.1
2017-Jun-23 03:30N 01°10' E 103°48'612.6
2017-Jun-23 03:00N 01°05' E 103°44'612.2
2017-Jun-23 02:30N 01°02' E 103°39'815.2
2017-Jun-23 02:00N 01°06' E 103°32'815.5
2017-Jun-23 01:30N 01°10' E 103°25'4714.9
2017-Jun-22 22:20N 01°38' E 102°47'2313.7
2017-Jun-22 20:40N 01°48' E 102°26'213.2
2017-Jun-22 20:30N 01°49' E 102°24'7 0.2
2017-Jun-21 02:08N 01°55' E 102°21'212.7
2017-Jun-21 01:58N 01°54' E 102°23'812.6
2017-Jun-21 01:20N 01°51' E 102°30'1212.2
2017-Jun-21 00:22N 01°46' E 102°41'711.8
2017-Jun-20 23:49N 01°43' E 102°47'5011.9
2017-Jun-20 19:38N 01°14' E 103°27'213.6
2017-Jun-20 19:29N 01°14' E 103°29'714.3
2017-Jun-20 19:00N 01°12' E 103°35'510.0
2017-Jun-20 18:31N 01°13' E 103°40'5 9.7
2017-Jun-20 18:00N 01°16' E 103°44'2 4.5
2017-Jun-20 17:31N 01°18' E 103°43'0 0.4
2017-Jun-20 16:59N 01°18' E 103°43'0 0.0
2017-Jun-20 16:29N 01°18' E 103°43'0 0.0
2017-Jun-20 15:59N 01°18' E 103°43'0 0.0
2017-Jun-20 15:29N 01°18' E 103°43'0 0.0
2017-Jun-20 14:59N 01°18' E 103°43'0 0.0
2017-Jun-20 13:56N 01°18' E 103°43'0 0.0
2017-Jun-20 13:29N 01°18' E 103°43'0 0.0
2017-Jun-20 12:59N 01°18' E 103°43'0 0.0
2017-Jun-20 12:29N 01°18' E 103°43'0 0.0
2017-Jun-20 11:59N 01°18' E 103°43'0 0.0
2017-Jun-20 11:29N 01°18' E 103°43'0 0.0
2017-Jun-20 10:59N 01°18' E 103°43'0 0.0
2017-Jun-20 10:29N 01°18' E 103°43'0 0.0
2017-Jun-20 09:59N 01°18' E 103°43'0 0.0
2017-Jun-20 09:29N 01°18' E 103°43'0 0.0
2017-Jun-20 08:59N 01°18' E 103°43'0 0.0
2017-Jun-20 08:29N 01°18' E 103°43'0 0.0
2017-Jun-20 07:59N 01°18' E 103°43'0 0.0
2017-Jun-20 07:29N 01°18' E 103°43'0 0.0
2017-Jun-20 06:59N 01°18' E 103°43'0 0.0
2017-Jun-20 06:29N 01°18' E 103°43'0 0.0
2017-Jun-20 05:59N 01°18' E 103°43'0 0.0
2017-Jun-20 05:29N 01°18' E 103°43'0 0.0
2017-Jun-20 04:59N 01°18' E 103°43'0 0.0
2017-Jun-20 04:29N 01°18' E 103°43'0 0.0
2017-Jun-20 03:59N 01°18' E 103°43'0 0.0
2017-Jun-20 03:29N 01°18' E 103°43'0 0.0
2017-Jun-20 02:59N 01°18' E 103°43'0 0.0
2017-Jun-20 02:26N 01°18' E 103°43'0 1.1
2017-Jun-20 02:00N 01°18' E 103°44'3 6.8
2017-Jun-20 01:30N 01°16' E 103°46'510.1
2017-Jun-20 01:01N 01°13' E 103°50'3 6.0
2017-Jun-20 00:31N 01°15' E 103°51'1 1.6
2017-Jun-19 23:58N 01°16' E 103°50'0 0.0
2017-Jun-19 23:28N 01°16' E 103°50'0 0.0
2017-Jun-19 22:58N 01°16' E 103°50'0 0.0
2017-Jun-19 22:28N 01°16' E 103°50'0 0.0
2017-Jun-19 21:58N 01°16' E 103°50'0 0.0
2017-Jun-19 21:28N 01°16' E 103°50'0 0.0
2017-Jun-19 20:58N 01°16' E 103°50'0 0.0
2017-Jun-19 20:28N 01°16' E 103°50'0 0.0
2017-Jun-19 19:55N 01°16' E 103°50'0 0.0
2017-Jun-19 19:28N 01°16' E 103°50'0 0.0
2017-Jun-19 18:58N 01°16' E 103°50'0 0.0
2017-Jun-19 18:28N 01°16' E 103°50'0 0.0
2017-Jun-19 17:58N 01°16' E 103°50'0 0.0
2017-Jun-19 17:28N 01°16' E 103°50'0 0.0
2017-Jun-19 16:59N 01°16' E 103°50'0 0.0
2017-Jun-19 16:29N 01°16' E 103°50'0 0.0
2017-Jun-19 15:59N 01°16' E 103°50'0 0.0
2017-Jun-19 15:29N 01°16' E 103°50'0 0.0
2017-Jun-19 14:59N 01°16' E 103°50'0 0.0
2017-Jun-19 14:29N 01°16' E 103°50'0 0.0
2017-Jun-19 13:29N 01°16' E 103°50'0 0.0
2017-Jun-19 12:59N 01°16' E 103°50'0 0.0
2017-Jun-19 12:29N 01°16' E 103°50'0 0.0
2017-Jun-19 11:59N 01°16' E 103°50'0 0.0
2017-Jun-19 11:29N 01°16' E 103°50'0 0.0
2017-Jun-19 10:59N 01°16' E 103°50'0 0.0
2017-Jun-19 10:29N 01°16' E 103°50'0 0.0
2017-Jun-19 09:59N 01°16' E 103°50'0 0.0
2017-Jun-19 09:29N 01°16' E 103°50'0 0.0
2017-Jun-19 09:00N 01°16' E 103°50'2 3.7
2017-Jun-19 08:30N 01°15' E 103°52'4 7.3
2017-Jun-19 08:00N 01°14' E 103°55'5 9.9
2017-Jun-19 07:31N 01°16' E 104°00'  
Track history (hours):
 
Tides and Currents Weather Stations Pressure Air Temp Water Temp Dewpoint Dewpoint Depression Visibility Wind Speed Wind Dir Waves Ship Positions

Tasman Mariner

Last reported at 2017-Jun-23 04:47 UTC. Time now 2017-Jun-24 18:54 UTC.
Position N 01°15' E 104°05'.

Length 184 m; beam 27 m; draft 10 m.

Type: Ship (hazmat cat C). MMSI: 477860000.

Date/timePositionNaut miles runAvg speedWind from/ knotsBaromVisibWave heightAir tempDewpointWater temp
2017-Jun-23 04:47N 01°15' E 104°05'414.0
2017-Jun-23 04:30N 01°15' E 104°01'714.0
2017-Jun-23 04:00N 01°12' E 103°54'713.1
2017-Jun-23 03:30N 01°10' E 103°48'612.6
2017-Jun-23 03:00N 01°05' E 103°44'612.2
2017-Jun-23 02:30N 01°02' E 103°39'815.2
2017-Jun-23 02:00N 01°06' E 103°32'815.5
2017-Jun-23 01:30N 01°10' E 103°25'4714.9
2017-Jun-22 22:20N 01°38' E 102°47'2313.7
2017-Jun-22 20:40N 01°48' E 102°26'213.2
2017-Jun-22 20:30N 01°49' E 102°24'7 0.2
2017-Jun-21 02:08N 01°55' E 102°21'212.7
2017-Jun-21 01:58N 01°54' E 102°23'812.6
2017-Jun-21 01:20N 01°51' E 102°30'1212.2
2017-Jun-21 00:22N 01°46' E 102°41'711.8
2017-Jun-20 23:49N 01°43' E 102°47'5011.9
2017-Jun-20 19:38N 01°14' E 103°27'213.6
2017-Jun-20 19:29N 01°14' E 103°29'714.3
2017-Jun-20 19:00N 01°12' E 103°35'510.0
2017-Jun-20 18:31N 01°13' E 103°40'5 9.7
2017-Jun-20 18:00N 01°16' E 103°44'2 4.5
2017-Jun-20 17:31N 01°18' E 103°43'0 0.4
2017-Jun-20 16:59N 01°18' E 103°43'0 0.0
2017-Jun-20 16:29N 01°18' E 103°43'0 0.0
2017-Jun-20 15:59N 01°18' E 103°43'0 0.0
2017-Jun-20 15:29N 01°18' E 103°43'0 0.0
2017-Jun-20 14:59N 01°18' E 103°43'0 0.0
2017-Jun-20 13:56N 01°18' E 103°43'0 0.0
2017-Jun-20 13:29N 01°18' E 103°43'0 0.0
2017-Jun-20 12:59N 01°18' E 103°43'0 0.0
2017-Jun-20 12:29N 01°18' E 103°43'0 0.0
2017-Jun-20 11:59N 01°18' E 103°43'0 0.0
2017-Jun-20 11:29N 01°18' E 103°43'0 0.0
2017-Jun-20 10:59N 01°18' E 103°43'0 0.0
2017-Jun-20 10:29N 01°18' E 103°43'0 0.0
2017-Jun-20 09:59N 01°18' E 103°43'0 0.0
2017-Jun-20 09:29N 01°18' E 103°43'0 0.0
2017-Jun-20 08:59N 01°18' E 103°43'0 0.0
2017-Jun-20 08:29N 01°18' E 103°43'0 0.0
2017-Jun-20 07:59N 01°18' E 103°43'0 0.0
2017-Jun-20 07:29N 01°18' E 103°43'0 0.0
2017-Jun-20 06:59N 01°18' E 103°43'0 0.0
2017-Jun-20 06:29N 01°18' E 103°43'0 0.0
2017-Jun-20 05:59N 01°18' E 103°43'0 0.0
2017-Jun-20 05:29N 01°18' E 103°43'0 0.0
2017-Jun-20 04:59N 01°18' E 103°43'0 0.0
2017-Jun-20 04:29N 01°18' E 103°43'0 0.0
2017-Jun-20 03:59N 01°18' E 103°43'0 0.0
2017-Jun-20 03:29N 01°18' E 103°43'0 0.0
2017-Jun-20 02:59N 01°18' E 103°43'0 0.0
2017-Jun-20 02:26N 01°18' E 103°43'0 1.1
2017-Jun-20 02:00N 01°18' E 103°44'3 6.8
2017-Jun-20 01:30N 01°16' E 103°46'510.1
2017-Jun-20 01:01N 01°13' E 103°50'3 6.0
2017-Jun-20 00:31N 01°15' E 103°51'1 1.6
2017-Jun-19 23:58N 01°16' E 103°50'0 0.0
2017-Jun-19 23:28N 01°16' E 103°50'0 0.0
2017-Jun-19 22:58N 01°16' E 103°50'0 0.0
2017-Jun-19 22:28N 01°16' E 103°50'0 0.0
2017-Jun-19 21:58N 01°16' E 103°50'0 0.0
2017-Jun-19 21:28N 01°16' E 103°50'0 0.0
2017-Jun-19 20:58N 01°16' E 103°50'0 0.0
2017-Jun-19 20:28N 01°16' E 103°50'0 0.0
2017-Jun-19 19:55N 01°16' E 103°50'0 0.0
2017-Jun-19 19:28N 01°16' E 103°50'0 0.0
2017-Jun-19 18:58N 01°16' E 103°50'0 0.0
2017-Jun-19 18:28N 01°16' E 103°50'0 0.0
2017-Jun-19 17:58N 01°16' E 103°50'0 0.0
2017-Jun-19 17:28N 01°16' E 103°50'0 0.0
2017-Jun-19 16:59N 01°16' E 103°50'0 0.0
2017-Jun-19 16:29N 01°16' E 103°50'0 0.0
2017-Jun-19 15:59N 01°16' E 103°50'0 0.0
2017-Jun-19 15:29N 01°16' E 103°50'0 0.0
2017-Jun-19 14:59N 01°16' E 103°50'0 0.0
2017-Jun-19 14:29N 01°16' E 103°50'0 0.0
2017-Jun-19 13:29N 01°16' E 103°50'0 0.0
2017-Jun-19 12:59N 01°16' E 103°50'0 0.0
2017-Jun-19 12:29N 01°16' E 103°50'0 0.0
2017-Jun-19 11:59N 01°16' E 103°50'0 0.0
2017-Jun-19 11:29N 01°16' E 103°50'0 0.0
2017-Jun-19 10:59N 01°16' E 103°50'0 0.0
2017-Jun-19 10:29N 01°16' E 103°50'0 0.0
2017-Jun-19 09:59N 01°16' E 103°50'0 0.0
2017-Jun-19 09:29N 01°16' E 103°50'0 0.0
2017-Jun-19 09:00N 01°16' E 103°50'2 3.7
2017-Jun-19 08:30N 01°15' E 103°52'4 7.3
2017-Jun-19 08:00N 01°14' E 103°55'5 9.9
2017-Jun-19 07:31N 01°16' E 104°00'  

Dump ship's entire track history